M I D A S
Marine Information and Data Acquisition System
Tripno 920 of the Zeeleeuw from 2005-06-23 06:25:49 to 2005-06-23 12:58:07
Back to CruiseResearch ActivitiesStationsMapUnderway DataData graphs

EquipmentUnitsComment
TimeDGPSUTC
LatitudeDGPSDM.mWGS84
LongitudeDGPSDM.mWGS84
HeadingGyrodeg 
SOGDGPSknotsSpeed over ground
COGDGPSdegCourse over ground
DepthEcho soundermeters200 kHz
Missing or incorrect values are displayed as -999
Navigation data collected by the RV Zeeleeuw from 2005-06-23 06:26:53 to 2005-06-23 13:07:03
                                                                                    Next 1000 lines
Time Latitude Longitude Heading SOG COG Depth
2005-06-23 06:27:02 51°13.646 2°55.992 116.6 0.8 299 5.2
2005-06-23 06:27:07 51°13.647 2°55.989 116.8 0.8 299 5.3
2005-06-23 06:27:12 51°13.648 2°55.985 117.2 0.8 299 4.9
2005-06-23 06:27:18 51°13.65 2°55.98 117.6 0.8 299 -999
2005-06-23 06:27:22 51°13.652 2°55.976 118.3 2.5 297 -999
2005-06-23 06:27:27 51°13.654 2°55.97 119.1 2.7 298 -999
2005-06-23 06:27:32 51°13.656 2°55.964 119.7 3 298 -999
2005-06-23 06:27:38 51°13.659 2°55.957 120.4 3.2 301 -999
2005-06-23 06:27:42 51°13.661 2°55.951 120.6 3.6 300 -999
2005-06-23 06:27:47 51°13.664 2°55.944 120.6 3.8 301 -999
2005-06-23 06:27:53 51°13.666 2°55.935 119.8 3.8 300 -999
2005-06-23 06:27:58 51°13.669 2°55.926 118.2 3.8 300 -999
2005-06-23 06:28:03 51°13.672 2°55.918 116 4.3 297 -999
2005-06-23 06:28:07 51°13.674 2°55.909 113.6 4.5 294 -999
2005-06-23 06:28:13 51°13.676 2°55.898 111.3 4.7 291 -999
2005-06-23 06:28:17 51°13.678 2°55.889 109.2 4.8 290 -999
2005-06-23 06:28:22 51°13.68 2°55.879 107.4 4.9 288 -999
2005-06-23 06:28:27 51°13.682 2°55.868 105.2 5 285 -999
2005-06-23 06:28:33 51°13.683 2°55.856 103.8 5 285 -999
2005-06-23 06:28:38 51°13.685 2°55.845 101.9 5 285 -999
2005-06-23 06:28:42 51°13.686 2°55.836 99.7 5 278 -999
2005-06-23 06:28:47 51°13.687 2°55.824 97.3 5 278 -999
2005-06-23 06:28:53 51°13.687 2°55.812 94.4 5 276 -999
2005-06-23 06:28:58 51°13.687 2°55.801 92.2 4.9 273 -999
2005-06-23 06:29:03 51°13.687 2°55.791 90.7 4.9 273 -999
2005-06-23 06:29:07 51°13.687 2°55.782 89.2 4.9 273 -999
2005-06-23 06:29:13 51°13.687 2°55.771 88.1 4.5 270 -999
2005-06-23 06:29:18 51°13.687 2°55.764 86.9 3.6 269 -999
2005-06-23 06:29:23 51°13.687 2°55.759 84.8 3.1 268 -999
2005-06-23 06:29:27 51°13.687 2°55.755 82.1 2.5 267 9.8
2005-06-23 06:29:32 51°13.687 2°55.751 79.6 1.9 269 9.9
2005-06-23 06:29:37 51°13.687 2°55.748 76.7 1.9 269 10
2005-06-23 06:29:42 51°13.687 2°55.747 73.8 1.9 269 10.1
2005-06-23 06:29:46 51°13.687 2°55.746 69.5 0.6 300 10.2
2005-06-23 06:29:52 51°13.688 2°55.746 65.3 0.6 300 10.2
2005-06-23 06:29:57 51°13.69 2°55.747 60.8 0.6 6 10.3
2005-06-23 06:30:02 51°13.692 2°55.749 54.5 0.6 6 10.3
2005-06-23 06:30:07 51°13.694 2°55.751 47.7 0.6 6 10.2
2005-06-23 06:30:11 51°13.697 2°55.752 40.6 0.6 6 10.3
2005-06-23 06:30:15 51°13.7 2°55.754 33.7 2.6 19 10.4
2005-06-23 06:30:22 51°13.706 2°55.756 26.8 2.9 14 10.4
2005-06-23 06:30:27 51°13.709 2°55.756 19.9 3 11 10.5
2005-06-23 06:30:32 51°13.712 2°55.757 15.1 3 11 10.6
2005-06-23 06:30:37 51°13.714 2°55.757 10.9 2.1 5 10.6
2005-06-23 06:30:42 51°13.716 2°55.757 7.8 2.1 5 10.7
2005-06-23 06:30:47 51°13.716 2°55.757 4.1 1.1 357 -999
2005-06-23 06:30:53 51°13.716 2°55.757 1.1 0.1 198 10.8
2005-06-23 06:30:57 51°13.715 2°55.757 359.1 0.1 198 -999
2005-06-23 06:31:03 51°13.713 2°55.757 358.1 1.1 177 -999
2005-06-23 06:31:07 51°13.712 2°55.758 357.1 1.1 174 10.6
2005-06-23 06:31:13 51°13.711 2°55.758 357 1.1 174 -999
2005-06-23 06:31:18 51°13.71 2°55.758 357.2 0.6 183 -999
2005-06-23 06:31:23 51°13.711 2°55.757 357 0.6 183 -999
2005-06-23 06:31:27 51°13.712 2°55.756 353.8 0.6 343 -999
2005-06-23 06:31:33 51°13.715 2°55.754 347.9 0.6 343 -999
2005-06-23 06:31:38 51°13.718 2°55.751 340.4 2.5 333 -999
2005-06-23 06:31:43 51°13.722 2°55.747 333.4 2.8 323 5
2005-06-23 06:31:47 51°13.724 2°55.743 330.3 2.9 326 10.6
2005-06-23 06:31:52 51°13.728 2°55.739 328.3 3.2 322 10.3
2005-06-23 06:31:57 51°13.733 2°55.733 326.6 3.2 322 9.3
2005-06-23 06:32:02 51°13.737 2°55.728 325.2 3.2 322 8.8
2005-06-23 06:32:07 51°13.743 2°55.721 324.8 3.2 322 8.4
2005-06-23 06:32:12 51°13.749 2°55.714 325.1 5.2 323 8.3
2005-06-23 06:32:17 51°13.755 2°55.707 325.7 5.2 323 8.1
2005-06-23 06:32:22 51°13.762 2°55.698 326 6 324 8.1
2005-06-23 06:32:27 51°13.77 2°55.689 326 6 324 8.1
2005-06-23 06:32:32 51°13.778 2°55.68 326.3 6.5 324 8.1
2005-06-23 06:32:37 51°13.785 2°55.673 327.5 6.9 326 8.1
2005-06-23 06:32:42 51°13.794 2°55.664 329.6 6.9 326 8.2
2005-06-23 06:32:47 51°13.803 2°55.655 331.6 7.3 328 8.4
2005-06-23 06:32:52 51°13.811 2°55.647 333 7.3 328 8.5
2005-06-23 06:32:57 51°13.821 2°55.639 333.8 7.3 328 8.6
2005-06-23 06:33:02 51°13.83 2°55.631 334.6 7.7 331 8.4
2005-06-23 06:33:07 51°13.842 2°55.622 335.8 7.7 331 8.5
2005-06-23 06:33:12 51°13.852 2°55.614 337.2 8.2 335 8.5
2005-06-23 06:33:17 51°13.861 2°55.607 338.2 8.2 335 8.6
2005-06-23 06:33:22 51°13.872 2°55.6 339.2 8.2 335 8.6
2005-06-23 06:33:27 51°13.884 2°55.592 340 8.5 336 8.6
2005-06-23 06:33:31 51°13.892 2°55.585 340 8.5 336 8.5
2005-06-23 06:33:37 51°13.906 2°55.576 339.9 8.5 336 8.5
2005-06-23 06:33:42 51°13.916 2°55.569 340.1 8.6 336 8.4
2005-06-23 06:33:46 51°13.925 2°55.563 340.7 8.6 336 8.6
2005-06-23 06:33:51 51°13.937 2°55.555 340.8 8.6 336 8.7
2005-06-23 06:33:57 51°13.95 2°55.545 340.9 8.6 336 9
2005-06-23 06:34:02 51°13.961 2°55.538 340.7 8.8 337 9.5
2005-06-23 06:34:07 51°13.973 2°55.529 340.5 8.8 337 9.5
2005-06-23 06:34:12 51°13.984 2°55.522 340.8 9 337 9.8
2005-06-23 06:34:17 51°13.996 2°55.514 341.1 9 337 10.3
2005-06-23 06:34:22 51°14.006 2°55.507 341.5 9 337 10.2
2005-06-23 06:34:27 51°14.018 2°55.499 341.6 9.1 336 9.5
2005-06-23 06:34:31 51°14.028 2°55.492 341.3 9.1 336 9.8
2005-06-23 06:34:37 51°14.042 2°55.483 341.9 9.1 336 9.3
2005-06-23 06:34:42 51°14.054 2°55.477 342.8 9.1 340 9
2005-06-23 06:34:47 51°14.066 2°55.47 343.6 9.1 340 9.4
2005-06-23 06:34:51 51°14.075 2°55.464 343.2 9.1 340 9.3
2005-06-23 06:34:57 51°14.087 2°55.455 341.8 9.1 336 9.2
2005-06-23 06:35:02 51°14.098 2°55.446 340.5 9.1 336 8.6
2005-06-23 06:35:07 51°14.11 2°55.437 339.6 9.1 336 8.9
2005-06-23 06:35:11 51°14.12 2°55.429 338.2 9.1 336 8.9
2005-06-23 06:35:17 51°14.134 2°55.419 337.9 9.1 336 9
2005-06-23 06:35:22 51°14.145 2°55.409 337.8 9.1 336 9.3
2005-06-23 06:35:27 51°14.157 2°55.399 336.6 9.4 331 9.9
2005-06-23 06:35:32 51°14.167 2°55.389 334.7 9.4 331 9.2
2005-06-23 06:35:37 51°14.179 2°55.376 333.6 9.4 331 9.2
2005-06-23 06:35:42 51°14.189 2°55.365 332.4 9.6 326 8.7
2005-06-23 06:35:47 51°14.201 2°55.351 329.7 9.6 326 9.3
2005-06-23 06:35:52 51°14.211 2°55.338 327.2 9.9 322 9.6
2005-06-23 06:35:57 51°14.222 2°55.323 326.1 9.9 322 9.5
2005-06-23 06:36:02 51°14.232 2°55.31 325.8 9.9 322 9.6
2005-06-23 06:36:07 51°14.242 2°55.295 324.7 9.9 322 9.4
2005-06-23 06:36:11 51°14.251 2°55.281 322 9.9 322 9.3
2005-06-23 06:36:17 51°14.263 2°55.261 319.8 10.2 315 9.3
2005-06-23 06:36:22 51°14.272 2°55.246 318.4 10.2 315 8.9
2005-06-23 06:36:27 51°14.282 2°55.227 316.7 10.4 311 9.3
2005-06-23 06:36:31 51°14.289 2°55.214 314.7 10.5 311 9.2
2005-06-23 06:36:37 51°14.3 2°55.193 314 10.6 310 9.3
2005-06-23 06:36:42 51°14.31 2°55.174 314 10.8 310 9
2005-06-23 06:36:46 51°14.317 2°55.159 313.4 10.8 310 8.9
2005-06-23 06:36:51 51°14.327 2°55.14 312.6 10.9 308 9
2005-06-23 06:36:57 51°14.338 2°55.117 312.4 10.9 308 8.8
2005-06-23 06:37:03 51°14.35 2°55.094 312.3 11 308 8.9
2005-06-23 06:37:07 51°14.357 2°55.079 312.3 11 308 8.8
2005-06-23 06:37:11 51°14.367 2°55.062 312.5 11.2 309 8.8
2005-06-23 06:37:17 51°14.379 2°55.04 313.9 11.2 310 8.8
2005-06-23 06:37:22 51°14.388 2°55.023 315.5 11.3 312 9
2005-06-23 06:37:27 51°14.401 2°55.002 316.5 11.3 312 8.9
2005-06-23 06:37:31 51°14.411 2°54.987 319.2 11.3 312 9
2005-06-23 06:37:37 51°14.426 2°54.966 321.9 11.3 312 9.1
2005-06-23 06:37:42 51°14.438 2°54.949 324.3 11.3 312 9.1
2005-06-23 06:37:47 51°14.452 2°54.927 324.6 12.7 317 9
2005-06-23 06:37:51 51°14.461 2°54.913 324 12.9 315 8.9
2005-06-23 06:37:57 51°14.476 2°54.887 322.2 13.1 313 8.8
2005-06-23 06:38:02 51°14.488 2°54.866 321.2 13.1 313 8.6
2005-06-23 06:38:07 51°14.503 2°54.843 322 13.3 314 8.6
2005-06-23 06:38:12 51°14.515 2°54.825 323.8 13.3 316 8.5
2005-06-23 06:38:17 51°14.529 2°54.804 325.3 13.3 316 8.5
2005-06-23 06:38:21 51°14.541 2°54.786 327.1 13.3 316 8.4
2005-06-23 06:38:25 51°14.552 2°54.771 328 13.3 316 8.4
2005-06-23 06:38:31 51°14.569 2°54.748 329.1 13.4 319 8.4
2005-06-23 06:38:37 51°14.586 2°54.725 329.6 13.4 319 8.3
2005-06-23 06:38:42 51°14.599 2°54.708 330.2 13.4 320 8.2
2005-06-23 06:38:46 51°14.611 2°54.694 331.6 13.3 323 8.2
2005-06-23 06:38:51 51°14.627 2°54.675 333.2 13.2 323 8.1
2005-06-23 06:38:57 51°14.645 2°54.656 334.6 13.2 324 8.1
2005-06-23 06:39:02 51°14.661 2°54.64 336.2 13.2 324 8.1
2005-06-23 06:39:07 51°14.676 2°54.624 337.2 13.2 327 8
2005-06-23 06:39:12 51°14.69 2°54.609 337.8 13.2 326 8.1
2005-06-23 06:39:17 51°14.705 2°54.593 337.9 13.2 327 8.1
2005-06-23 06:39:22 51°14.722 2°54.575 337.5 13.2 326 8.1
2005-06-23 06:39:27 51°14.737 2°54.558 336.8 13.3 325 8
2005-06-23 06:39:31 51°14.748 2°54.543 336.1 13.3 325 8
2005-06-23 06:39:37 51°14.764 2°54.523 334.7 13.3 322 7.9
2005-06-23 06:39:42 51°14.78 2°54.501 332.7 13.4 320 8
2005-06-23 06:39:47 51°14.794 2°54.482 331.4 13.4 319 7.9
2005-06-23 06:39:51 51°14.805 2°54.466 329.9 13.4 319 7.9
2005-06-23 06:39:57 51°14.821 2°54.442 328.7 13.4 319 7.9
2005-06-23 06:40:02 51°14.833 2°54.423 328 13.4 319 7.9
2005-06-23 06:40:07 51°14.848 2°54.401 327.8 13.4 317 7.9
2005-06-23 06:40:11 51°14.859 2°54.385 327.8 13.4 317 7.8
2005-06-23 06:40:17 51°14.876 2°54.362 328.5 13.3 318 5.7
2005-06-23 06:40:22 51°14.89 2°54.344 329.7 13.3 318 5.6
2005-06-23 06:40:27 51°14.903 2°54.329 331.7 13 323 7.5
2005-06-23 06:40:32 51°14.919 2°54.311 333.8 13 323 7.4
2005-06-23 06:40:37 51°14.935 2°54.296 335.3 12.9 325 7.3
2005-06-23 06:40:41 51°14.947 2°54.285 337.1 12.9 325 7.2
2005-06-23 06:40:47 51°14.965 2°54.267 338.2 12.6 329 7.1
2005-06-23 06:40:52 51°14.98 2°54.253 339.1 12.6 329 7
2005-06-23 06:40:57 51°14.994 2°54.239 339.6 12.5 329 7
2005-06-23 06:41:02 51°15.008 2°54.226 339.8 12.4 329 7
2005-06-23 06:41:06 51°15.021 2°54.213 339.9 12.4 329 7
2005-06-23 06:41:11 51°15.036 2°54.198 339.5 12.5 328 7
2005-06-23 06:41:17 51°15.053 2°54.179 338.8 12.5 327 7.1
2005-06-23 06:41:22 51°15.068 2°54.163 337.6 12.7 326 7.1
2005-06-23 06:41:25 51°15.076 2°54.153 336.6 12.7 325 7.1
2005-06-23 06:41:32 51°15.096 2°54.13 335.5 12.7 325 -999
2005-06-23 06:41:36 51°15.106 2°54.117 334.5 12.9 322 7.2
2005-06-23 06:41:42 51°15.123 2°54.093 332.6 12.8 319 7.3
2005-06-23 06:41:47 51°15.136 2°54.073 330.3 12.9 317 5.5
2005-06-23 06:41:51 51°15.147 2°54.057 328.8 12.9 317 7.4
2005-06-23 06:41:57 51°15.161 2°54.036 327.9 13 316 7.4
2005-06-23 06:42:02 51°15.176 2°54.013 327.3 13.1 316 7.5
2005-06-23 06:42:06 51°15.185 2°54 327 13.2 317 7.6
2005-06-23 06:42:12 51°15.203 2°53.974 327.5 13.2 317 7.6
2005-06-23 06:42:17 51°15.215 2°53.958 328.9 13.2 320 7.7
2005-06-23 06:42:22 51°15.232 2°53.939 330.1 13.2 320 7.7
2005-06-23 06:42:27 51°15.245 2°53.925 333.4 13.2 320 7.8
2005-06-23 06:42:32 51°15.263 2°53.909 336 13 330 7.8
2005-06-23 06:42:37 51°15.279 2°53.896 339.2 13 332 7.9
2005-06-23 06:42:41 51°15.292 2°53.885 341.7 13 332 8
2005-06-23 06:42:46 51°15.306 2°53.874 343.5 13 333 8.1
2005-06-23 06:42:52 51°15.328 2°53.857 344.1 13 334 8.2
2005-06-23 06:42:57 51°15.344 2°53.844 344.5 13.2 333 8.2
2005-06-23 06:43:02 51°15.359 2°53.831 344 13.2 333 8.3
2005-06-23 06:43:06 51°15.373 2°53.818 342.8 13.2 333 8.3
2005-06-23 06:43:11 51°15.389 2°53.803 341.1 13.3 330 8.5
2005-06-23 06:43:17 51°15.408 2°53.783 339 13.4 328 8.5
2005-06-23 06:43:22 51°15.421 2°53.768 337.7 13.5 327 8.5
2005-06-23 06:43:27 51°15.437 2°53.751 336.7 13.5 326 8.6
2005-06-23 06:43:32 51°15.454 2°53.732 335.9 13.5 325 8.6
2005-06-23 06:43:37 51°15.469 2°53.715 335.4 13.6 325 8.7
2005-06-23 06:43:42 51°15.485 2°53.699 335.2 13.6 325 8.7
2005-06-23 06:43:47 51°15.501 2°53.682 335.3 13.6 326 8.8
2005-06-23 06:43:51 51°15.513 2°53.669 336.6 13.5 327 8.9
2005-06-23 06:43:56 51°15.528 2°53.655 337.6 13.6 328 9
2005-06-23 06:44:02 51°15.549 2°53.635 338.5 13.6 329 9
2005-06-23 06:44:07 51°15.565 2°53.619 338.9 13.6 329 9
2005-06-23 06:44:12 51°15.582 2°53.604 339.5 13.6 329 9.1
2005-06-23 06:44:17 51°15.596 2°53.59 339.6 13.6 329 9.2
2005-06-23 06:44:22 51°15.612 2°53.574 339.3 13.6 329 9.2
2005-06-23 06:44:27 51°15.629 2°53.555 338.6 13.6 327 9.3
2005-06-23 06:44:32 51°15.645 2°53.538 337.8 13.7 326 9.3
2005-06-23 06:44:37 51°15.66 2°53.521 336.9 13.7 326 9.4
2005-06-23 06:44:42 51°15.676 2°53.503 336.6 13.8 325 9.5
2005-06-23 06:44:47 51°15.692 2°53.486 336.3 13.8 325 9.4
2005-06-23 06:44:52 51°15.707 2°53.469 336 13.8 325 9.5
2005-06-23 06:44:57 51°15.721 2°53.454 336 13.7 325 9.5
2005-06-23 06:45:02 51°15.739 2°53.435 336 13.8 326 9.5
2005-06-23 06:45:06 51°15.751 2°53.421 336.3 13.8 326 9.6
2005-06-23 06:45:11 51°15.767 2°53.405 336.7 13.7 326 9.7
2005-06-23 06:45:17 51°15.785 2°53.386 337 13.6 327 9.7
2005-06-23 06:45:22 51°15.802 2°53.367 337.2 13.6 327 9.8
2005-06-23 06:45:25 51°15.812 2°53.358 337.4 13.6 327 9.8
2005-06-23 06:45:33 51°15.835 2°53.332 337.5 13.6 327 9.9
2005-06-23 06:45:37 51°15.85 2°53.317 337.2 13.8 326 9.9
2005-06-23 06:45:42 51°15.864 2°53.301 336.9 13.8 326 9.9
2005-06-23 06:45:46 51°15.878 2°53.286 336.7 13.8 326 9.9
2005-06-23 06:45:51 51°15.894 2°53.268 336.5 13.8 326 9.9
2005-06-23 06:45:57 51°15.913 2°53.248 336.5 13.8 325 10
2005-06-23 06:46:01 51°15.925 2°53.234 336.5 13.8 325 10
2005-06-23 06:46:07 51°15.944 2°53.214 336.7 13.8 325 10
2005-06-23 06:46:12 51°15.959 2°53.199 337.2 13.8 325 10.1
2005-06-23 06:46:17 51°15.974 2°53.182 337.5 13.8 325 10.1
2005-06-23 06:46:22 51°15.992 2°53.164 337.6 13.7 327 10.2
2005-06-23 06:46:27 51°16.008 2°53.147 337.7 13.7 326 10.2
2005-06-23 06:46:31 51°16.02 2°53.133 337.5 13.7 326 10.2
2005-06-23 06:46:37 51°16.038 2°53.115 337.5 13.7 326 10.3
2005-06-23 06:46:42 51°16.055 2°53.096 337.2 13.7 326 10.3
2005-06-23 06:46:47 51°16.071 2°53.079 337.2 13.7 326 10.4
2005-06-23 06:46:52 51°16.087 2°53.063 337.2 13.7 326 10.5
2005-06-23 06:46:57 51°16.103 2°53.046 337.5 13.6 327 10.3
2005-06-23 06:47:02 51°16.117 2°53.031 337.6 13.7 327 10.4
2005-06-23 06:47:06 51°16.131 2°53.016 337.6 13.7 327 10.4
2005-06-23 06:47:12 51°16.15 2°52.997 337.7 13.6 327 10.5
2005-06-23 06:47:17 51°16.164 2°52.983 338.1 13.6 328 10.5
2005-06-23 06:47:22 51°16.182 2°52.965 338.8 13.5 328 10.5
2005-06-23 06:47:27 51°16.198 2°52.949 339 13.6 328 10.5
2005-06-23 06:47:31 51°16.211 2°52.936 339.1 13.7 328 10.5
2005-06-23 06:47:37 51°16.231 2°52.917 339.1 13.7 328 10.6
2005-06-23 06:47:42 51°16.245 2°52.903 339.1 13.8 328 10.6
2005-06-23 06:47:47 51°16.261 2°52.887 338.9 13.6 328 10.6
2005-06-23 06:47:52 51°16.278 2°52.869 339.1 13.6 328 10.7
2005-06-23 06:47:57 51°16.294 2°52.853 339.2 13.6 328 10.7
2005-06-23 06:48:02 51°16.309 2°52.839 339.1 13.6 328 10.7
2005-06-23 06:48:06 51°16.323 2°52.824 338.9 13.6 328 10.7
2005-06-23 06:48:11 51°16.34 2°52.809 339 13.6 328 10.7
2005-06-23 06:48:16 51°16.356 2°52.794 339.6 13.6 329 10.7
2005-06-23 06:48:21 51°16.372 2°52.778 340 13.6 329 10.7
2005-06-23 06:48:27 51°16.392 2°52.76 340.4 13.5 330 10.6
2005-06-23 06:48:32 51°16.408 2°52.745 340.8 13.5 330 10.6
2005-06-23 06:48:37 51°16.424 2°52.73 340.9 13.6 330 10.6
2005-06-23 06:48:41 51°16.437 2°52.718 340.8 13.6 330 10.5
2005-06-23 06:48:47 51°16.457 2°52.7 340.4 13.6 329 10.5
2005-06-23 06:48:52 51°16.473 2°52.684 340.2 13.6 330 10.5
2005-06-23 06:48:57 51°16.488 2°52.671 340.1 13.5 330 10.4
2005-06-23 06:49:02 51°16.504 2°52.656 340.1 13.5 330 10.3
2005-06-23 06:49:07 51°16.522 2°52.639 340.3 13.5 330 10.2
2005-06-23 06:49:12 51°16.538 2°52.625 340.4 13.6 330 10
2005-06-23 06:49:17 51°16.555 2°52.61 340.5 13.5 330 10
2005-06-23 06:49:22 51°16.569 2°52.597 340.7 13.4 330 9.9
2005-06-23 06:49:27 51°16.587 2°52.58 340.6 13.4 330 9.8
2005-06-23 06:49:32 51°16.603 2°52.566 340.5 13.4 330 9.7
2005-06-23 06:49:37 51°16.62 2°52.553 341.2 13.4 332 9.6
2005-06-23 06:49:42 51°16.635 2°52.542 342.6 13.3 334 9.5
2005-06-23 06:49:47 51°16.651 2°52.531 344.1 13.2 337 9.3
2005-06-23 06:49:52 51°16.67 2°52.519 345.4 13.1 338 9.2
2005-06-23 06:49:57 51°16.687 2°52.508 346.2 13.1 338 8.8
2005-06-23 06:50:02 51°16.702 2°52.497 346.3 13.1 337 8.7
2005-06-23 06:50:06 51°16.717 2°52.487 346.2 13 337 8.3
2005-06-23 06:50:11 51°16.733 2°52.476 345.5 13 337 8.2
2005-06-23 06:50:17 51°16.752 2°52.461 345.1 13 337 8.4
2005-06-23 06:50:21 51°16.765 2°52.452 344.1 13 337 8.4
2005-06-23 06:50:27 51°16.783 2°52.438 343.4 12.8 335 8.4
2005-06-23 06:50:32 51°16.799 2°52.426 342.9 13 334 8.5
2005-06-23 06:50:36 51°16.814 2°52.414 342.6 13.1 334 8.5
2005-06-23 06:50:41 51°16.83 2°52.402 342.5 13.1 334 8.5
2005-06-23 06:50:47 51°16.849 2°52.387 342.5 13 334 8.4
2005-06-23 06:50:52 51°16.866 2°52.374 342.6 13 334 8.3
2005-06-23 06:50:57 51°16.882 2°52.363 343.4 12.9 335 8.2
2005-06-23 06:51:01 51°16.895 2°52.354 344 12.9 335 8.1
2005-06-23 06:51:07 51°16.915 2°52.341 344.9 12.8 337 8.1
2005-06-23 06:51:11 51°16.928 2°52.332 345.9 12.8 337 8.1
2005-06-23 06:51:17 51°16.946 2°52.32 346.4 12.8 338 8.2
2005-06-23 06:51:22 51°16.965 2°52.308 346.7 12.9 338 8.3
2005-06-23 06:51:27 51°16.981 2°52.297 346.7 12.9 338 8.3
2005-06-23 06:51:32 51°16.998 2°52.286 346.4 12.9 337 8.3
2005-06-23 06:51:37 51°17.014 2°52.274 345.7 12.9 336 8.4
2005-06-23 06:51:41 51°17.027 2°52.265 344.7 13.1 335 8.6
2005-06-23 06:51:47 51°17.047 2°52.249 344 13.1 334 8.6
2005-06-23 06:51:51 51°17.06 2°52.24 343.3 13.1 334 8.6
2005-06-23 06:51:57 51°17.08 2°52.226 344 13.1 336 8.7
2005-06-23 06:52:02 51°17.097 2°52.215 344.9 13.1 337 8.6
2005-06-23 06:52:06 51°17.109 2°52.208 346.3 13.2 339 8.9
2005-06-23 06:52:12 51°17.131 2°52.195 347.7 13.1 340 8.9
2005-06-23 06:52:17 51°17.148 2°52.186 348.7 13.1 341 8.9
2005-06-23 06:52:22 51°17.165 2°52.176 349.6 13 341 8.9
2005-06-23 06:52:27 51°17.182 2°52.167 350.3 13 342 9
2005-06-23 06:52:31 51°17.196 2°52.16 350.5 13.1 341 8.9
2005-06-23 06:52:37 51°17.217 2°52.148 350.5 13.1 341 8.9
2005-06-23 06:52:42 51°17.234 2°52.138 350 13.2 340 9
2005-06-23 06:52:46 51°17.245 2°52.13 349.2 13.1 339 9
2005-06-23 06:52:52 51°17.267 2°52.116 348.1 13.1 338 9.1
2005-06-23 06:52:57 51°17.284 2°52.105 347.5 13.1 338 9.2
2005-06-23 06:53:02 51°17.299 2°52.095 346.9 13.1 338 9.2
2005-06-23 06:53:07 51°17.318 2°52.083 346.9 13.1 338 9.3
2005-06-23 06:53:12 51°17.335 2°52.073 347 13.1 338 9.1
2005-06-23 06:53:17 51°17.35 2°52.064 347.6 13.1 339 9
2005-06-23 06:53:22 51°17.367 2°52.053 348.2 13.1 339 9.2
2005-06-23 06:53:27 51°17.385 2°52.043 348.6 13 340 9
2005-06-23 06:53:31 51°17.399 2°52.035 349.2 13 340 8.9
2005-06-23 06:53:37 51°17.417 2°52.023 349.3 13 340 9.1
2005-06-23 06:53:42 51°17.435 2°52.012 349.2 12.8 339 8.9
2005-06-23 06:53:47 51°17.451 2°51.998 348.1 12.8 338 9.1
2005-06-23 06:53:52 51°17.466 2°51.985 344.1 12.8 338 9.2
2005-06-23 06:53:57 51°17.482 2°51.968 340.8 13.2 328 9
2005-06-23 06:54:02 51°17.497 2°51.951 337.7 13.2 328 9.1
2005-06-23 06:54:06 51°17.509 2°51.937 335.4 13.2 328 9.1
2005-06-23 06:54:12 51°17.526 2°51.915 333.6 13.2 328 9.1
2005-06-23 06:54:17 51°17.54 2°51.897 332.4 13.2 321 8.8
2005-06-23 06:54:22 51°17.553 2°51.876 330.2 13.2 317 8.8
2005-06-23 06:54:27 51°17.565 2°51.854 326.9 13.2 314 8.8
2005-06-23 06:54:32 51°17.577 2°51.831 322.9 13.2 314 8.9
2005-06-23 06:54:37 51°17.589 2°51.808 320.2 13.3 309 8.8
2005-06-23 06:54:42 51°17.6 2°51.784 318.6 13.4 307 8.8
2005-06-23 06:54:46 51°17.607 2°51.767 317.1 13.4 305 8.8
2005-06-23 06:54:51 51°17.618 2°51.739 314.2 13.5 302 8.5
2005-06-23 06:54:57 51°17.629 2°51.708 311.6 13.5 301 8.4
2005-06-23 06:55:02 51°17.637 2°51.681 309.5 13.5 299 8.5
2005-06-23 06:55:05 51°17.643 2°51.666 307.9 13.5 298 8.6
2005-06-23 06:55:12 51°17.654 2°51.628 306.8 13.5 298 8.5
2005-06-23 06:55:16 51°17.66 2°51.609 305.8 13.6 295 8.4
2005-06-23 06:55:22 51°17.67 2°51.573 304.9 13.6 295 8.4
2005-06-23 06:55:27 51°17.678 2°51.547 304.8 13.6 296 8.4
2005-06-23 06:55:32 51°17.687 2°51.52 305 13.6 296 8.3
2005-06-23 06:55:37 51°17.695 2°51.496 305.7 13.6 297 8.3
2005-06-23 06:55:42 51°17.704 2°51.467 306.5 13.6 298 8.4
2005-06-23 06:55:47 51°17.714 2°51.44 307.3 13.6 298 8.4
2005-06-23 06:55:52 51°17.722 2°51.416 308.2 13.6 299 8.5
2005-06-23 06:55:57 51°17.731 2°51.39 309 13.6 300 8.5
2005-06-23 06:56:02 51°17.742 2°51.362 309.7 13.6 300 8.5
2005-06-23 06:56:07 51°17.752 2°51.336 310.3 13.6 301 8.6
2005-06-23 06:56:11 51°17.759 2°51.315 310.6 13.6 301 8.7
2005-06-23 06:56:17 51°17.771 2°51.283 310.3 13.8 300 8.7
2005-06-23 06:56:22 51°17.779 2°51.258 309.8 13.8 300 8.8
2005-06-23 06:56:27 51°17.789 2°51.229 309.5 13.8 300 8.9
2005-06-23 06:56:32 51°17.798 2°51.201 308.7 13.8 298 8.9
2005-06-23 06:56:37 51°17.807 2°51.174 307.8 13.9 298 9
2005-06-23 06:56:42 51°17.815 2°51.149 307 14 297 9.1
2005-06-23 06:56:47 51°17.823 2°51.122 306.3 14 297 9.2
2005-06-23 06:56:51 51°17.832 2°51.096 306.2 14 296 9.3
2005-06-23 06:56:57 51°17.842 2°51.063 306.1 14 296 9.5
2005-06-23 06:57:02 51°17.85 2°51.038 306.2 14.2 297 9.6
2005-06-23 06:57:06 51°17.858 2°51.013 307 14.2 298 9.8
2005-06-23 06:57:11 51°17.868 2°50.985 307.8 14.2 298 9.9
2005-06-23 06:57:17 51°17.88 2°50.952 308.5 14.3 299 10
2005-06-23 06:57:22 51°17.889 2°50.925 308.9 14.3 299 10.2
2005-06-23 06:57:27 51°17.899 2°50.897 309.4 14.2 299 10.3
2005-06-23 06:57:32 51°17.909 2°50.87 309.7 14.2 299 10.5
2005-06-23 06:57:37 51°17.918 2°50.842 309.7 14.3 299 10.6
2005-06-23 06:57:42 51°17.927 2°50.816 309.1 14.3 299 10.7
2005-06-23 06:57:47 51°17.937 2°50.785 308.1 14.4 297 10.8
2005-06-23 06:57:52 51°17.945 2°50.76 307.2 14.4 297 10.9
2005-06-23 06:57:57 51°17.954 2°50.729 306.8 14.3 297 11
2005-06-23 06:58:02 51°17.962 2°50.703 306.5 14.3 297 11.1
2005-06-23 06:58:07 51°17.972 2°50.672 306.4 14.4 297 11.2
2005-06-23 06:58:11 51°17.979 2°50.649 306.4 14.4 297 11.2
2005-06-23 06:58:17 51°17.99 2°50.615 306.2 14.4 296 11.3
2005-06-23 06:58:22 51°17.997 2°50.589 305.8 14.3 296 11.3
2005-06-23 06:58:27 51°18.007 2°50.558 305.6 14.3 296 11.4
2005-06-23 06:58:32 51°18.016 2°50.529 305.7 14.3 296 11.4
2005-06-23 06:58:37 51°18.024 2°50.501 305.7 14.3 296 11.5
2005-06-23 06:58:42 51°18.033 2°50.472 305.7 14.3 296 11.6
2005-06-23 06:58:46 51°18.04 2°50.45 305.7 14.3 296 11.7
2005-06-23 06:58:52 51°18.051 2°50.416 306 14.3 296 11.9
2005-06-23 06:58:57 51°18.06 2°50.387 306.3 14.3 297 11.9
2005-06-23 06:59:02 51°18.067 2°50.362 306.3 14.3 296 12.1
2005-06-23 06:59:06 51°18.074 2°50.339 306.2 14.3 296 12.1
2005-06-23 06:59:12 51°18.085 2°50.304 306.2 14.4 296 12.2
2005-06-23 06:59:17 51°18.095 2°50.273 306.1 14.3 296 12.3
2005-06-23 06:59:22 51°18.103 2°50.245 306 14.3 296 12.3
2005-06-23 06:59:26 51°18.11 2°50.222 306 14.3 296 12.3
2005-06-23 06:59:32 51°18.121 2°50.187 306.1 14.3 296 12.5
2005-06-23 06:59:37 51°18.13 2°50.159 306.1 14.4 296 12.4
2005-06-23 06:59:42 51°18.139 2°50.131 306.2 14.3 296 12.5
2005-06-23 06:59:47 51°18.148 2°50.102 306.3 14.3 296 12.5
2005-06-23 06:59:52 51°18.156 2°50.074 306.3 14.4 296 12.5
2005-06-23 06:59:57 51°18.165 2°50.045 306.3 14.4 296 12.6
2005-06-23 07:00:02 51°18.173 2°50.019 306.2 14.4 296 12.6
2005-06-23 07:00:07 51°18.182 2°49.988 305.8 14.4 296 12.6
2005-06-23 07:00:12 51°18.19 2°49.962 305.5 14.4 296 12.6
2005-06-23 07:00:17 51°18.199 2°49.931 305.5 14.4 296 12.6
2005-06-23 07:00:22 51°18.208 2°49.902 305.2 14.4 296 12.6
2005-06-23 07:00:27 51°18.216 2°49.873 305.5 14.4 296 12.5
2005-06-23 07:00:32 51°18.225 2°49.844 305.7 14.4 296 12.5
2005-06-23 07:00:37 51°18.233 2°49.816 305.7 14.4 296 12.5
2005-06-23 07:00:42 51°18.241 2°49.79 305.7 14.4 296 12.4
2005-06-23 07:00:47 51°18.25 2°49.758 305.5 14.4 296 12.4
2005-06-23 07:00:52 51°18.259 2°49.73 305.3 14.4 295 12.3
2005-06-23 07:00:57 51°18.268 2°49.701 305.5 14.4 296 12.2
2005-06-23 07:01:02 51°18.275 2°49.675 305.6 14.4 296 11.9
2005-06-23 07:01:07 51°18.285 2°49.644 305.6 14.4 296 11.9
2005-06-23 07:01:11 51°18.292 2°49.621 305.6 14.4 296 11.8
2005-06-23 07:01:17 51°18.302 2°49.587 305.5 14.3 296 11.7
2005-06-23 07:01:22 51°18.31 2°49.558 305.5 14.3 295 11.5
2005-06-23 07:01:26 51°18.317 2°49.535 305.3 14.3 295 11.2
2005-06-23 07:01:32 51°18.327 2°49.503 305.3 14.3 295 11
2005-06-23 07:01:37 51°18.336 2°49.473 305.5 14.3 296 10.5
2005-06-23 07:01:42 51°18.344 2°49.447 306 14.2 296 10
2005-06-23 07:01:47 51°18.354 2°49.416 306.1 14.2 296 9.9
2005-06-23 07:01:51 51°18.36 2°49.393 305.9 14.2 296 10.3
2005-06-23 07:01:57 51°18.371 2°49.359 305.6 14.2 296 10.2
2005-06-23 07:02:02 51°18.378 2°49.334 305.5 14.2 296 10.1
2005-06-23 07:02:07 51°18.388 2°49.303 305.5 14.2 296 10
2005-06-23 07:02:12 51°18.396 2°49.277 305.7 14.2 296 9.6
2005-06-23 07:02:17 51°18.405 2°49.249 306 14.2 296 9.4
2005-06-23 07:02:22 51°18.414 2°49.218 306.4 14.2 296 9.3
2005-06-23 07:02:27 51°18.423 2°49.191 306.8 14.1 297 9.1
2005-06-23 07:02:32 51°18.432 2°49.163 307 14.1 297 8.9
2005-06-23 07:02:37 51°18.441 2°49.135 307.1 14.1 297 8.9
2005-06-23 07:02:42 51°18.449 2°49.11 307.1 14.1 297 8.9
2005-06-23 07:02:47 51°18.459 2°49.079 307.1 14.1 297 9.2
2005-06-23 07:02:52 51°18.468 2°49.051 306.9 14.2 297 9.2
2005-06-23 07:02:57 51°18.477 2°49.023 306.6 14.3 297 9.2
2005-06-23 07:03:02 51°18.485 2°48.997 306 14.3 296 9.2
2005-06-23 07:03:07 51°18.494 2°48.965 305.6 14.3 296 9.3
2005-06-23 07:03:11 51°18.501 2°48.942 305 14.4 295 9.2
2005-06-23 07:03:17 51°18.511 2°48.907 304.8 14.4 296 9
2005-06-23 07:03:22 51°18.52 2°48.879 304.8 14.4 296 8.6
2005-06-23 07:03:26 51°18.527 2°48.857 305.2 14.4 296 8.5
2005-06-23 07:03:32 51°18.538 2°48.823 305.8 14.2 297 9.2
2005-06-23 07:03:37 51°18.547 2°48.795 306.3 14.2 298 9.4
2005-06-23 07:03:42 51°18.556 2°48.77 307.2 14.3 298 9.6
2005-06-23 07:03:46 51°18.564 2°48.745 307.6 14.6 299 9.6
2005-06-23 07:03:51 51°18.574 2°48.717 308.2 14.6 299 9.7
2005-06-23 07:03:57 51°18.586 2°48.683 308.4 14.6 298 9.5
2005-06-23 07:04:02 51°18.594 2°48.657 308.1 14.6 298 9.3
2005-06-23 07:04:07 51°18.603 2°48.625 307 14.6 298 9.4
2005-06-23 07:04:12 51°18.611 2°48.599 305.5 14.6 298 9.7
2005-06-23 07:04:17 51°18.62 2°48.567 304.4 14.6 298 9.8
2005-06-23 07:04:22 51°18.628 2°48.537 303.2 14.6 298 10
2005-06-23 07:04:27 51°18.636 2°48.507 302.6 14.7 293 10.7
2005-06-23 07:04:32 51°18.644 2°48.476 302.1 14.7 293 11.1
2005-06-23 07:04:37 51°18.652 2°48.446 302.1 14.9 293 11.2
2005-06-23 07:04:42 51°18.66 2°48.419 301.9 14.9 293 11.2
2005-06-23 07:04:47 51°18.668 2°48.386 302 14.9 293 11.3
2005-06-23 07:04:51 51°18.675 2°48.362 302.3 14.7 293 11.5
2005-06-23 07:04:57 51°18.685 2°48.326 302.3 14.7 293 11.8
2005-06-23 07:05:02 51°18.692 2°48.299 302.6 14.7 294 12.1
2005-06-23 07:05:07 51°18.702 2°48.267 302.8 14.7 294 12.4
2005-06-23 07:05:11 51°18.708 2°48.243 303.3 14.8 294 12.5
2005-06-23 07:05:17 51°18.718 2°48.207 303.3 14.7 294 12.6
2005-06-23 07:05:22 51°18.726 2°48.177 303.1 14.7 294 12.6
2005-06-23 07:05:27 51°18.734 2°48.148 302.9 14.7 294 12.9
2005-06-23 07:05:32 51°18.743 2°48.118 302.9 14.6 294 13
2005-06-23 07:05:37 51°18.751 2°48.089 302.8 14.6 294 13.1
2005-06-23 07:05:42 51°18.758 2°48.062 302.9 14.6 294 13.3
2005-06-23 07:05:46 51°18.765 2°48.035 302.6 14.6 293 13.6
2005-06-23 07:05:52 51°18.774 2°48 302.3 14.5 293 13.8
2005-06-23 07:05:57 51°18.782 2°47.97 302.2 14.5 293 14.1
2005-06-23 07:06:02 51°18.789 2°47.943 302.4 14.5 293 14.3
2005-06-23 07:06:07 51°18.798 2°47.911 302.6 14.5 293 14.5
2005-06-23 07:06:12 51°18.805 2°47.885 302.7 14.5 293 14.6
2005-06-23 07:06:17 51°18.814 2°47.852 302.7 14.5 293 14.7
2005-06-23 07:06:22 51°18.822 2°47.823 302.7 14.5 293 14.9
2005-06-23 07:06:27 51°18.83 2°47.793 302.7 14.5 293 15.1
2005-06-23 07:06:32 51°18.838 2°47.764 302.8 14.5 293 15.4
2005-06-23 07:06:37 51°18.846 2°47.734 302.8 14.5 293 15.6
2005-06-23 07:06:42 51°18.853 2°47.708 302.9 14.5 293 16
2005-06-23 07:06:47 51°18.862 2°47.675 302.8 14.5 293 16.3
2005-06-23 07:06:51 51°18.868 2°47.651 302.8 14.5 293 16.6
2005-06-23 07:06:57 51°18.877 2°47.616 302.7 14.5 293 17
2005-06-23 07:07:02 51°18.884 2°47.589 302.6 14.5 293 17.2
2005-06-23 07:07:07 51°18.892 2°47.557 302.5 14.5 292 17.4
2005-06-23 07:07:12 51°18.899 2°47.529 302.2 14.5 292 17.4
2005-06-23 07:07:17 51°18.908 2°47.497 302 14.5 292 17.5
2005-06-23 07:07:22 51°18.915 2°47.471 302.2 14.5 292 17.3
2005-06-23 07:07:27 51°18.924 2°47.438 302.8 14.5 292 17.3
2005-06-23 07:07:32 51°18.932 2°47.409 303.3 14.5 294 17.4
2005-06-23 07:07:37 51°18.94 2°47.38 303.7 14.4 294 17.6
2005-06-23 07:07:42 51°18.947 2°47.354 303.7 14.4 294 17.7
2005-06-23 07:07:47 51°18.955 2°47.325 303.4 14.4 293 17.8
2005-06-23 07:07:52 51°18.963 2°47.295 303.2 14.4 293 17.9
2005-06-23 07:07:57 51°18.971 2°47.266 302.9 14.4 293 18.1
2005-06-23 07:08:02 51°18.979 2°47.234 302.9 14.4 293 18.4
2005-06-23 07:08:06 51°18.986 2°47.211 303.1 14.4 294 18.6
2005-06-23 07:08:12 51°18.996 2°47.175 303.3 14.4 294 18.8
2005-06-23 07:08:17 51°19.004 2°47.147 303.5 14.4 294 18.8
2005-06-23 07:08:22 51°19.011 2°47.12 303.5 14.4 294 18.9
2005-06-23 07:08:27 51°19.02 2°47.088 303.3 14.4 294 19.2
2005-06-23 07:08:32 51°19.028 2°47.058 303.1 14.4 294 19.3
2005-06-23 07:08:37 51°19.035 2°47.029 302.8 14.4 294 19.4
2005-06-23 07:08:42 51°19.042 2°47.002 302.6 14.4 294 19.5
2005-06-23 07:08:47 51°19.051 2°46.97 302.3 14.5 293 19.6
2005-06-23 07:08:51 51°19.057 2°46.946 302 14.5 293 19.7
2005-06-23 07:08:57 51°19.066 2°46.914 302 14.5 293 19.7
2005-06-23 07:09:02 51°19.074 2°46.881 302.4 14.5 293 19.7
2005-06-23 07:09:07 51°19.082 2°46.851 302.6 14.5 293 19.7
2005-06-23 07:09:12 51°19.09 2°46.822 302.8 14.5 293 19.7
2005-06-23 07:09:17 51°19.098 2°46.792 302.6 14.5 293 19.8
2005-06-23 07:09:22 51°19.105 2°46.765 302.5 14.6 293 19.8
2005-06-23 07:09:27 51°19.114 2°46.733 302.5 14.6 293 19.8
2005-06-23 07:09:32 51°19.122 2°46.704 302.8 14.6 293 19.7
2005-06-23 07:09:37 51°19.13 2°46.674 303.1 14.5 294 19.8
2005-06-23 07:09:42 51°19.137 2°46.647 303.2 14.5 294 19.8
2005-06-23 07:09:47 51°19.146 2°46.615 303.3 14.6 293 19.9
2005-06-23 07:09:52 51°19.154 2°46.585 303.1 14.5 293 19.8
2005-06-23 07:09:57 51°19.162 2°46.555 302.9 14.6 293 20
2005-06-23 07:10:02 51°19.169 2°46.529 302.6 14.6 293 20.1
2005-06-23 07:10:06 51°19.176 2°46.502 302.5 14.6 293 20
2005-06-23 07:10:12 51°19.185 2°46.469 302.6 14.6 293 19.5
2005-06-23 07:10:17 51°19.193 2°46.437 302.8 14.6 293 19.5
2005-06-23 07:10:22 51°19.201 2°46.407 302.9 14.6 293 19.2
2005-06-23 07:10:26 51°19.207 2°46.387 303.1 14.5 293 19
2005-06-23 07:10:32 51°19.218 2°46.348 303.3 14.5 294 18.4
2005-06-23 07:10:37 51°19.226 2°46.318 303.5 14.5 294 19.3
2005-06-23 07:10:42 51°19.233 2°46.292 303.6 14.6 294 19.5
2005-06-23 07:10:46 51°19.239 2°46.268 303.6 14.6 294 19.5
2005-06-23 07:10:52 51°19.249 2°46.232 303.3 14.6 293 19.2
2005-06-23 07:10:57 51°19.257 2°46.199 302.9 14.6 293 19
2005-06-23 07:11:02 51°19.265 2°46.169 302.6 14.6 293 18.8
2005-06-23 07:11:07 51°19.272 2°46.139 302.5 14.6 292 18.6
2005-06-23 07:11:12 51°19.28 2°46.109 302.5 14.7 292 18.2
2005-06-23 07:11:17 51°19.287 2°46.082 302.5 14.7 292 17.5
2005-06-23 07:11:22 51°19.295 2°46.052 302.6 14.6 293 17.1
2005-06-23 07:11:27 51°19.303 2°46.023 302.9 14.6 293 16.8
2005-06-23 07:11:31 51°19.31 2°45.996 303.1 14.6 293 16.1
2005-06-23 07:11:37 51°19.32 2°45.96 303.3 14.6 293 15.5
2005-06-23 07:11:42 51°19.328 2°45.93 303.6 14.6 293 16.4
2005-06-23 07:11:47 51°19.336 2°45.9 303.7 14.7 294 16.3
2005-06-23 07:11:52 51°19.344 2°45.871 304 14.7 294 14.9
2005-06-23 07:11:57 51°19.353 2°45.842 304.2 14.6 294 15.7
2005-06-23 07:12:02 51°19.36 2°45.815 304.2 14.6 294 15.5
2005-06-23 07:12:07 51°19.369 2°45.783 304.1 14.6 294 14.5
2005-06-23 07:12:11 51°19.376 2°45.759 303.9 14.6 294 14.6
2005-06-23 07:12:17 51°19.385 2°45.723 303.6 14.6 294 14.4
2005-06-23 07:12:22 51°19.393 2°45.696 303.3 14.6 294 13.6
2005-06-23 07:12:26 51°19.399 2°45.673 303.4 14.7 294 13.1
2005-06-23 07:12:32 51°19.41 2°45.634 303.7 14.6 294 11.9
2005-06-23 07:12:37 51°19.418 2°45.605 303.8 14.6 294 12.5
2005-06-23 07:12:42 51°19.426 2°45.578 304 14.6 294 11.6
2005-06-23 07:12:46 51°19.432 2°45.554 304 14.6 293 9.6
2005-06-23 07:12:52 51°19.442 2°45.519 303.5 14.6 293 11.4
2005-06-23 07:12:57 51°19.451 2°45.487 303.4 14.6 293 11.1
2005-06-23 07:13:02 51°19.458 2°45.461 303.7 14.5 294 9.6
2005-06-23 07:13:07 51°19.467 2°45.428 304 14.5 294 10.9
2005-06-23 07:13:11 51°19.474 2°45.404 304 14.5 294 10.8
2005-06-23 07:13:17 51°19.484 2°45.369 303.8 14.6 295 10.1
2005-06-23 07:13:22 51°19.492 2°45.342 303.7 14.6 294 8.9
2005-06-23 07:13:27 51°19.501 2°45.31 303.5 14.5 294 10.5
2005-06-23 07:13:32 51°19.509 2°45.281 303.4 14.5 294 9.4
2005-06-23 07:13:37 51°19.517 2°45.251 303 14.5 294 11.9
2005-06-23 07:13:42 51°19.524 2°45.223 301.7 14.8 293 12.1
2005-06-23 07:13:46 51°19.53 2°45.195 301.1 15 292 11.9
2005-06-23 07:13:52 51°19.539 2°45.161 300.2 15 291 12.7
2005-06-23 07:13:57 51°19.547 2°45.127 299.7 15 291 13.8
2005-06-23 07:14:02 51°19.554 2°45.096 299 15 291 15.5
2005-06-23 07:14:07 51°19.561 2°45.065 298.9 15 291 15.9
2005-06-23 07:14:12 51°19.569 2°45.033 298.8 15 291 16.4
2005-06-23 07:14:17 51°19.576 2°45.003 298.8 15 291 17.8
2005-06-23 07:14:22 51°19.582 2°44.976 299 14.8 291 18.8
2005-06-23 07:14:27 51°19.59 2°44.942 299.1 14.8 291 19.4
2005-06-23 07:14:32 51°19.598 2°44.911 299.3 14.7 291 19.7
2005-06-23 07:14:37 51°19.605 2°44.881 299.4 14.7 291 19.9
2005-06-23 07:14:42 51°19.611 2°44.854 299.4 14.7 291 20.1
2005-06-23 07:14:47 51°19.619 2°44.821 299.2 14.7 291 20.1
2005-06-23 07:14:51 51°19.624 2°44.796 298.9 14.6 290 20.3
2005-06-23 07:14:57 51°19.633 2°44.76 298.6 14.6 290 20.4
2005-06-23 07:15:02 51°19.639 2°44.732 298.5 14.7 290 20.5
2005-06-23 07:15:07 51°19.647 2°44.699 298.4 14.7 290 20.6
2005-06-23 07:15:12 51°19.652 2°44.672 298.3 14.6 290 20.7
2005-06-23 07:15:17 51°19.66 2°44.638 298.2 14.6 290 20.7
2005-06-23 07:15:22 51°19.667 2°44.611 298.5 14.6 290 20.7
2005-06-23 07:15:27 51°19.674 2°44.577 298.9 14.6 290 20.8
2005-06-23 07:15:32 51°19.681 2°44.547 299 14.6 290 20.9
2005-06-23 07:15:37 51°19.688 2°44.517 299 14.6 290 21.1
2005-06-23 07:15:42 51°19.695 2°44.489 299 14.6 290 21.3
2005-06-23 07:15:46 51°19.701 2°44.461 298.7 14.7 290 21.3
2005-06-23 07:15:52 51°19.709 2°44.425 298.3 14.7 290 21.6
2005-06-23 07:15:56 51°19.714 2°44.403 298.2 14.6 289 21.8
2005-06-23 07:16:02 51°19.722 2°44.367 298.2 14.6 289 21.9
2005-06-23 07:16:07 51°19.73 2°44.333 298.3 14.7 290 22.1
2005-06-23 07:16:12 51°19.736 2°44.306 298.7 14.6 290 22.2
2005-06-23 07:16:17 51°19.743 2°44.276 298.9 14.6 290 22.3
2005-06-23 07:16:22 51°19.75 2°44.245 298.9 14.6 290 22.3
2005-06-23 07:16:27 51°19.758 2°44.212 299.3 14.6 291 22.5
2005-06-23 07:16:32 51°19.766 2°44.181 300.3 14.6 292 22.3
2005-06-23 07:16:37 51°19.773 2°44.151 300.7 14.6 292 22.5
2005-06-23 07:16:42 51°19.781 2°44.121 300.7 14.6 292 22.5
2005-06-23 07:16:47 51°19.788 2°44.091 300.7 14.6 291 22.4
2005-06-23 07:16:51 51°19.794 2°44.067 300.3 14.6 291 22.3
2005-06-23 07:16:57 51°19.803 2°44.031 300.2 14.6 291 22.2
2005-06-23 07:17:02 51°19.809 2°44.004 300.7 14.6 291 22.6
2005-06-23 07:17:07 51°19.817 2°43.971 300.8 14.5 291 22.5
2005-06-23 07:17:12 51°19.824 2°43.941 300.7 14.5 291 22.2
2005-06-23 07:17:17 51°19.831 2°43.911 300.5 14.5 291 22.3
2005-06-23 07:17:22 51°19.838 2°43.884 300.4 14.5 291 22.6
2005-06-23 07:17:26 51°19.843 2°43.86 300.6 14.4 291 22.3
2005-06-23 07:17:31 51°19.852 2°43.827 301.1 14.4 292 22.9
2005-06-23 07:17:37 51°19.86 2°43.792 301.3 14.4 291 22.8
2005-06-23 07:17:42 51°19.867 2°43.765 301.4 14.4 292 23
2005-06-23 07:17:46 51°19.873 2°43.741 301.5 14.5 291 23.3
2005-06-23 07:17:52 51°19.882 2°43.705 301.5 14.5 292 23.8
2005-06-23 07:17:57 51°19.89 2°43.672 301.3 14.5 292 24
2005-06-23 07:18:02 51°19.897 2°43.646 301.2 14.6 292 24.2
2005-06-23 07:18:07 51°19.905 2°43.613 301.4 14.5 292 24.5
2005-06-23 07:18:11 51°19.911 2°43.589 301.6 14.5 292 24.8
2005-06-23 07:18:17 51°19.92 2°43.553 301.6 14.6 292 25
2005-06-23 07:18:22 51°19.927 2°43.526 301.3 14.6 291 25.1
2005-06-23 07:18:27 51°19.935 2°43.493 301 14.6 292 25.2
2005-06-23 07:18:32 51°19.942 2°43.462 300.9 14.6 291 25.3
2005-06-23 07:18:37 51°19.95 2°43.432 301 14.6 292 25.3
2005-06-23 07:18:42 51°19.956 2°43.405 301.2 14.6 292 25.2
2005-06-23 07:18:47 51°19.965 2°43.372 301.3 14.6 292 25.2
2005-06-23 07:18:52 51°19.972 2°43.342 301.5 14.6 292 24.9
2005-06-23 07:18:57 51°19.98 2°43.313 301.5 14.6 292 24.9
2005-06-23 07:19:02 51°19.987 2°43.286 301.4 14.6 292 24.8
2005-06-23 07:19:06 51°19.993 2°43.259 301.5 14.6 292 24.9
2005-06-23 07:19:12 51°20.002 2°43.223 301.6 14.6 292 24.9
2005-06-23 07:19:17 51°20.01 2°43.193 301.7 14.5 292 25
2005-06-23 07:19:22 51°20.017 2°43.163 301.6 14.5 292 25.1
2005-06-23 07:19:27 51°20.025 2°43.133 301.6 14.6 292 25
2005-06-23 07:19:32 51°20.032 2°43.106 301.6 14.6 292 24.9
2005-06-23 07:19:37 51°20.04 2°43.074 301.6 14.6 292 25.1
2005-06-23 07:19:42 51°20.046 2°43.047 301.5 14.5 292 25
2005-06-23 07:19:47 51°20.055 2°43.014 301.3 14.5 292 24.9
2005-06-23 07:19:52 51°20.062 2°42.984 301.2 14.5 292 24.9
2005-06-23 07:19:57 51°20.07 2°42.954 301.2 14.5 292 24.8
2005-06-23 07:20:02 51°20.076 2°42.927 301.1 14.5 292 24.7
2005-06-23 07:20:07 51°20.084 2°42.894 301.1 14.5 291 24.3
2005-06-23 07:20:12 51°20.092 2°42.863 301 14.5 291 24.4
2005-06-23 07:20:17 51°20.099 2°42.834 300.8 14.6 291 24.1
2005-06-23 07:20:22 51°20.106 2°42.807 300.9 14.6 292 24.3
2005-06-23 07:20:26 51°20.112 2°42.78 301.2 14.6 292 24
2005-06-23 07:20:32 51°20.121 2°42.747 301.4 14.6 292 23.9
2005-06-23 07:20:37 51°20.129 2°42.714 301.4 14.6 292 23.7
2005-06-23 07:20:42 51°20.136 2°42.684 301.2 14.6 292 23.4
2005-06-23 07:20:47 51°20.142 2°42.653 300.4 14.6 289 23.1
2005-06-23 07:20:52 51°20.148 2°42.622 298.2 14.6 288 22.1
2005-06-23 07:20:57 51°20.154 2°42.591 297.3 14.7 287 22.4
2005-06-23 07:21:02 51°20.16 2°42.563 296.5 14.7 287 22.7
2005-06-23 07:21:07 51°20.166 2°42.529 296.1 14.6 287 22.8
2005-06-23 07:21:12 51°20.172 2°42.501 296.2 14.6 287 22.7
2005-06-23 07:21:17 51°20.178 2°42.467 296.2 14.6 287 22.5
2005-06-23 07:21:22 51°20.184 2°42.439 296.2 14.6 287 21.3
2005-06-23 07:21:27 51°20.19 2°42.405 296.2 14.7 287 21.4
2005-06-23 07:21:32 51°20.196 2°42.373 296.2 14.7 287 21.4
2005-06-23 07:21:37 51°20.202 2°42.342 295.8 14.7 286 20.8
2005-06-23 07:21:42 51°20.207 2°42.311 295.7 14.7 286 21.2
2005-06-23 07:21:46 51°20.212 2°42.286 295.5 14.7 286 20.7
2005-06-23 07:21:52 51°20.219 2°42.248 295.6 14.7 287 20.2
2005-06-23 07:21:57 51°20.225 2°42.217 295.8 14.7 287 19
2005-06-23 07:22:02 51°20.231 2°42.19 296 14.7 287 16.1
2005-06-23 07:22:07 51°20.237 2°42.155 296.1 14.7 287 17.9
2005-06-23 07:22:12 51°20.243 2°42.127 296.1 14.7 287 19.2
2005-06-23 07:22:17 51°20.25 2°42.092 296.4 14.8 287 18.6
2005-06-23 07:22:22 51°20.256 2°42.061 296.8 14.8 288 16.7
2005-06-23 07:22:27 51°20.262 2°42.03 296.8 14.8 288 18.1
2005-06-23 07:22:32 51°20.268 2°41.998 296.3 14.8 287 17.8
2005-06-23 07:22:37 51°20.274 2°41.97 296.2 14.8 287 16.1
2005-06-23 07:22:42 51°20.279 2°41.939 296.1 14.8 287 15.7
2005-06-23 07:22:46 51°20.284 2°41.913 295.9 14.8 287 14.8
2005-06-23 07:22:51 51°20.291 2°41.879 295.9 14.8 287 16.9
2005-06-23 07:22:57 51°20.298 2°41.841 295.9 14.9 287 16.7
2005-06-23 07:23:02 51°20.304 2°41.813 296.2 14.9 288 17.3
2005-06-23 07:23:07 51°20.31 2°41.778 296.8 14.9 288 16.2
2005-06-23 07:23:12 51°20.317 2°41.747 296.9 14.9 288 16.4
2005-06-23 07:23:17 51°20.322 2°41.719 296.6 14.9 287 18.5
2005-06-23 07:23:22 51°20.328 2°41.688 296.4 14.9 287 19
2005-06-23 07:23:27 51°20.335 2°41.653 296.4 14.9 287 19.3
2005-06-23 07:23:32 51°20.341 2°41.625 296.4 15 288 19.3
2005-06-23 07:23:37 51°20.348 2°41.59 296.7 14.8 288 20.4
2005-06-23 07:23:42 51°20.354 2°41.562 296.8 14.8 288 20.5
2005-06-23 07:23:47 51°20.36 2°41.531 296.8 14.8 288 20.3
2005-06-23 07:23:52 51°20.367 2°41.497 296.8 14.8 288 20.6
2005-06-23 07:23:57 51°20.373 2°41.466 296.8 14.7 288 19.7
2005-06-23 07:24:02 51°20.379 2°41.438 296.6 14.6 287 18.4
2005-06-23 07:24:07 51°20.385 2°41.405 296.6 14.5 288 18.8
2005-06-23 07:24:12 51°20.389 2°41.376 295 14.6 284 19.6
2005-06-23 07:24:17 51°20.394 2°41.342 292.6 14.6 283 19.1
2005-06-23 07:24:22 51°20.397 2°41.31 290.8 14.6 283 19.3
2005-06-23 07:24:27 51°20.401 2°41.278 289.5 14.6 281 19.7
2005-06-23 07:24:32 51°20.405 2°41.246 288.7 14.6 281 19.8
2005-06-23 07:24:37 51°20.407 2°41.218 287.6 14.6 280 20.4
2005-06-23 07:24:42 51°20.411 2°41.182 287 14.6 279 21.8
2005-06-23 07:24:47 51°20.414 2°41.151 286.7 14.6 279 23
2005-06-23 07:24:52 51°20.417 2°41.118 286.6 14.6 279 23.6
2005-06-23 07:24:57 51°20.42 2°41.087 286.5 14.6 279 24.7
2005-06-23 07:25:02 51°20.423 2°41.058 286.5 14.6 279 25.8
2005-06-23 07:25:07 51°20.426 2°41.023 286.4 14.6 278 26.2
2005-06-23 07:25:12 51°20.429 2°40.994 286.3 14.6 279 26.4
2005-06-23 07:25:17 51°20.432 2°40.962 286.3 14.6 278 26.4
2005-06-23 07:25:22 51°20.435 2°40.927 285.9 14.6 278 26.6
2005-06-23 07:25:27 51°20.438 2°40.895 286 14.6 278 26.9
2005-06-23 07:25:32 51°20.441 2°40.863 286.4 14.6 279 26.9
2005-06-23 07:25:37 51°20.444 2°40.831 286.6 14.6 279 26.9
2005-06-23 07:25:42 51°20.447 2°40.799 286.6 14.6 279 26.9
2005-06-23 07:25:47 51°20.45 2°40.767 286.6 14.5 278 26.8
2005-06-23 07:25:52 51°20.453 2°40.735 286.3 14.5 278 26.8
2005-06-23 07:25:57 51°20.456 2°40.703 286.1 14.5 278 26.7
2005-06-23 07:26:02 51°20.459 2°40.674 285.9 14.6 278 26.4
2005-06-23 07:26:07 51°20.462 2°40.639 285.9 14.5 278 26.4
2005-06-23 07:26:11 51°20.464 2°40.614 286.5 14.5 279 26.5
2005-06-23 07:26:17 51°20.468 2°40.575 286.6 14.5 278 26.5
2005-06-23 07:26:22 51°20.47 2°40.547 286.3 14.6 278 26.4
2005-06-23 07:26:26 51°20.473 2°40.518 286.2 14.6 278 26.3
2005-06-23 07:26:32 51°20.477 2°40.483 286.6 14.6 278 26.2
2005-06-23 07:26:37 51°20.48 2°40.448 286.7 14.6 278 26
2005-06-23 07:26:42 51°20.483 2°40.419 287.1 14.6 279 25.9
2005-06-23 07:26:47 51°20.487 2°40.384 287.4 14.6 279 25.6
2005-06-23 07:26:51 51°20.489 2°40.358 287.4 14.6 279 25.5
2005-06-23 07:26:57 51°20.492 2°40.32 286.8 14.6 278 25.6
2005-06-23 07:27:02 51°20.495 2°40.291 286.1 14.7 278 25.6
2005-06-23 07:27:06 51°20.497 2°40.262 286.1 14.7 278 25.7
2005-06-23 07:27:12 51°20.501 2°40.223 286.1 14.7 278 26
2005-06-23 07:27:17 51°20.503 2°40.194 286.4 14.7 279 26
2005-06-23 07:27:22 51°20.507 2°40.158 286.6 14.7 278 26
2005-06-23 07:27:27 51°20.51 2°40.126 286.9 14.7 278 26.1
2005-06-23 07:27:32 51°20.513 2°40.094 287.1 14.7 278 26.2
2005-06-23 07:27:37 51°20.516 2°40.065 287.3 14.8 279 26.2
2005-06-23 07:27:42 51°20.519 2°40.029 287.2 14.8 279 26
2005-06-23 07:27:47 51°20.522 2°39.997 286.9 14.8 278 25.9
2005-06-23 07:27:52 51°20.525 2°39.967 286.6 14.8 278 25.9
2005-06-23 07:27:57 51°20.528 2°39.932 286.6 14.8 278 25.9
2005-06-23 07:28:02 51°20.531 2°39.902 286.6 14.8 278 25.8
2005-06-23 07:28:07 51°20.534 2°39.866 286.5 14.8 278 25.5
2005-06-23 07:28:11 51°20.537 2°39.84 286.3 14.8 278 25.1
2005-06-23 07:28:17 51°20.54 2°39.801 286.6 14.8 278 24.8
2005-06-23 07:28:22 51°20.543 2°39.772 286.8 14.9 279 24.5
2005-06-23 07:28:26 51°20.546 2°39.746 287.1 14.9 279 24.6
2005-06-23 07:28:31 51°20.549 2°39.71 287.3 14.8 279 24.3
2005-06-23 07:28:37 51°20.553 2°39.671 287.4 14.9 279 24.2
2005-06-23 07:28:42 51°20.556 2°39.642 287.4 14.9 279 24.2
2005-06-23 07:28:47 51°20.559 2°39.606 287.5 14.8 279 24
2005-06-23 07:28:52 51°20.562 2°39.574 287.5 14.8 279 23.9
2005-06-23 07:28:57 51°20.565 2°39.541 287.5 14.9 279 23.8
2005-06-23 07:29:02 51°20.568 2°39.509 287.4 14.9 279 24
2005-06-23 07:29:07 51°20.572 2°39.477 287.6 14.9 279 24
2005-06-23 07:29:12 51°20.575 2°39.447 287.6 14.9 279 23.7
2005-06-23 07:29:17 51°20.579 2°39.411 287.6 14.9 279 23.8
2005-06-23 07:29:22 51°20.582 2°39.379 287.6 14.8 279 23.4
2005-06-23 07:29:26 51°20.584 2°39.356 287.6 14.8 279 23.5
2005-06-23 07:29:31 51°20.587 2°39.324 287.5 14.9 279 23.4
2005-06-23 07:29:37 51°20.591 2°39.281 287.4 14.9 279 23.3
2005-06-23 07:29:42 51°20.593 2°39.252 287.2 14.8 278 23.4
2005-06-23 07:29:47 51°20.596 2°39.216 287 14.9 278 23.3
2005-06-23 07:29:51 51°20.599 2°39.19 286.6 14.8 278 22.9
2005-06-23 07:29:57 51°20.602 2°39.155 286.6 14.8 278 22.7
2005-06-23 07:30:02 51°20.605 2°39.122 286.6 14.8 278 22.7
2005-06-23 07:30:07 51°20.608 2°39.086 286.6 14.8 278 23.2
2005-06-23 07:30:12 51°20.611 2°39.053 286.5 14.8 278 22.9
2005-06-23 07:30:17 51°20.614 2°39.025 286.5 14.8 278 23.2
2005-06-23 07:30:22 51°20.617 2°38.992 286.9 14.8 279 23.1
2005-06-23 07:30:26 51°20.619 2°38.966 287 14.8 278 23.2
2005-06-23 07:30:32 51°20.623 2°38.924 287 14.8 279 23
2005-06-23 07:30:37 51°20.625 2°38.895 287 14.8 278 22.6
2005-06-23 07:30:42 51°20.628 2°38.862 287 14.8 278 22.3
2005-06-23 07:30:46 51°20.631 2°38.833 286.6 14.8 278 21.8
2005-06-23 07:30:51 51°20.633 2°38.804 286.6 14.8 278 23
2005-06-23 07:30:57 51°20.637 2°38.762 286.5 14.8 278 23.4
2005-06-23 07:31:02 51°20.639 2°38.732 286.2 14.8 278 23.3
2005-06-23 07:31:07 51°20.642 2°38.697 285.7 14.8 278 23
2005-06-23 07:31:11 51°20.644 2°38.671 285.5 14.8 277 22.8
2005-06-23 07:31:17 51°20.647 2°38.632 285.3 14.8 277 22
2005-06-23 07:31:22 51°20.649 2°38.602 285.2 14.8 277 23.1
2005-06-23 07:31:27 51°20.652 2°38.57 285.4 14.8 277 23
2005-06-23 07:31:32 51°20.654 2°38.537 285.9 14.8 277 23
2005-06-23 07:31:37 51°20.657 2°38.502 285.9 14.8 277 22.3
2005-06-23 07:31:42 51°20.659 2°38.469 285.8 14.8 277 23.1
2005-06-23 07:31:47 51°20.662 2°38.436 285.2 14.8 277 23.3
2005-06-23 07:31:52 51°20.664 2°38.407 285.1 14.8 277 23.4
2005-06-23 07:31:57 51°20.667 2°38.371 285.1 14.9 277 22.6
2005-06-23 07:32:02 51°20.669 2°38.342 285.4 14.9 277 20.9
2005-06-23 07:32:06 51°20.671 2°38.316 285.6 14.9 277 22.9
2005-06-23 07:32:12 51°20.674 2°38.276 285.6 14.9 277 23
2005-06-23 07:32:17 51°20.677 2°38.24 285.6 14.9 277 22.8
2005-06-23 07:32:22 51°20.68 2°38.207 285.5 14.9 277 22
2005-06-23 07:32:27 51°20.682 2°38.175 285.5 14.9 277 22.4
2005-06-23 07:32:32 51°20.685 2°38.142 285.4 14.9 277 22.9
2005-06-23 07:32:37 51°20.687 2°38.109 285.3 14.9 277 21.9
2005-06-23 07:32:42 51°20.69 2°38.08 285.3 14.9 277 22.4
2005-06-23 07:32:47 51°20.692 2°38.043 285.2 15 277 22.6
2005-06-23 07:32:52 51°20.695 2°38.014 285.2 15 277 22
2005-06-23 07:32:57 51°20.697 2°37.978 285.2 15 277 21.6
2005-06-23 07:33:02 51°20.7 2°37.945 285.2 15 277 22.7
2005-06-23 07:33:06 51°20.702 2°37.922 285.2 15 277 22.3
2005-06-23 07:33:12 51°20.705 2°37.878 285.2 15 277 21.3
2005-06-23 07:33:17 51°20.708 2°37.846 285.1 15 277 22.6
2005-06-23 07:33:22 51°20.71 2°37.816 284.9 15 277 22.7
2005-06-23 07:33:27 51°20.713 2°37.779 284.8 15.1 277 22.9
2005-06-23 07:33:32 51°20.715 2°37.749 284.8 15.1 277 22.9
2005-06-23 07:33:37 51°20.718 2°37.713 284.8 15.1 277 22.8
2005-06-23 07:33:42 51°20.72 2°37.68 284.8 15.1 277 21.7
2005-06-23 07:33:47 51°20.723 2°37.647 284.8 15.1 277 22.4
2005-06-23 07:33:52 51°20.726 2°37.613 285.2 15.1 277 22.1
2005-06-23 07:33:57 51°20.729 2°37.58 285.2 15.1 277 22.4
2005-06-23 07:34:02 51°20.731 2°37.547 285.2 15.1 278 22.4
2005-06-23 07:34:07 51°20.734 2°37.514 285.4 15.1 278 22.8
2005-06-23 07:34:12 51°20.736 2°37.481 285.4 15.1 278 21.3
2005-06-23 07:34:17 51°20.739 2°37.448 285.4 15.1 277 22.2
2005-06-23 07:34:22 51°20.742 2°37.418 285.4 15.2 278 22.1
2005-06-23 07:34:27 51°20.745 2°37.381 285.4 15.2 278 22.8
2005-06-23 07:34:32 51°20.747 2°37.351 285.4 15.2 278 22.8
2005-06-23 07:34:37 51°20.75 2°37.315 285.5 15.2 278 22.5
2005-06-23 07:34:42 51°20.753 2°37.285 285.5 15.2 278 22
2005-06-23 07:34:47 51°20.756 2°37.248 285.3 15.2 277 22.3
2005-06-23 07:34:52 51°20.758 2°37.215 285 15.2 277 21.5
2005-06-23 07:34:57 51°20.76 2°37.185 285 15.1 277 22.2
2005-06-23 07:35:02 51°20.763 2°37.152 285 15.1 277 22.5
2005-06-23 07:35:07 51°20.765 2°37.118 284.7 15.1 276 21.7
2005-06-23 07:35:12 51°20.768 2°37.085 284.4 15.1 276 20.9
2005-06-23 07:35:17 51°20.77 2°37.048 284.2 15.1 276 21.5
2005-06-23 07:35:22 51°20.772 2°37.018 284.2 15.1 276 20.8
2005-06-23 07:35:26 51°20.774 2°36.992 284.4 15.1 276 21
2005-06-23 07:35:33 51°20.777 2°36.945 284.6 15.1 277 20.9
2005-06-23 07:35:37 51°20.779 2°36.915 285.2 15.1 277 19.9
2005-06-23 07:35:42 51°20.782 2°36.882 285.6 15.1 277 21
2005-06-23 07:35:47 51°20.785 2°36.849 285.9 15.1 277 20.9
2005-06-23 07:35:52 51°20.787 2°36.819 286.2 15.1 277 19.6
2005-06-23 07:35:58 51°20.79 2°36.779 286.4 15.1 277 20.9
2005-06-23 07:36:02 51°20.792 2°36.752 286.1 15.1 277 21.1
2005-06-23 07:36:07 51°20.794 2°36.716 285.9 15.1 277 20.3
2005-06-23 07:36:12 51°20.797 2°36.682 285.5 15.1 277 20.4
2005-06-23 07:36:17 51°20.799 2°36.653 285.4 15.1 276 20.9
2005-06-23 07:36:22 51°20.801 2°36.616 285.2 15.1 276 20.8
2005-06-23 07:36:27 51°20.803 2°36.583 285 15.1 276 21.1
2005-06-23 07:36:32 51°20.805 2°36.553 284.7 15.1 276 20
2005-06-23 07:36:37 51°20.808 2°36.517 285.2 15.1 276 20.9
2005-06-23 07:36:42 51°20.81 2°36.487 285.8 15 277 21.6
2005-06-23 07:36:47 51°20.813 2°36.451 285.9 15 277 21.4
2005-06-23 07:36:52 51°20.816 2°36.417 285.9 15.1 277 21.3
2005-06-23 07:36:57 51°20.818 2°36.384 285.5 15.1 276 21.6
2005-06-23 07:37:02 51°20.822 2°36.351 285.9 15 278 20.8
2005-06-23 07:37:07 51°20.825 2°36.319 287.4 15 278 21.6
2005-06-23 07:37:12 51°20.828 2°36.285 288.4 15 280 21.1
2005-06-23 07:37:17 51°20.832 2°36.253 288.9 15 280 21.2
2005-06-23 07:37:22 51°20.835 2°36.22 289.4 15 280 22.5
2005-06-23 07:37:26 51°20.838 2°36.197 289.6 15.1 280 22.7
2005-06-23 07:37:31 51°20.842 2°36.164 289.5 15.1 280 21.3
2005-06-23 07:37:37 51°20.846 2°36.122 289.4 15.1 280 21.2
2005-06-23 07:37:42 51°20.85 2°36.092 289.3 15.1 280 23
2005-06-23 07:37:47 51°20.854 2°36.056 289.2 15.1 280 23.8
2005-06-23 07:37:52 51°20.858 2°36.026 289.6 15 281 24.9
2005-06-23 07:37:57 51°20.862 2°35.991 289.9 15 281 24.6
2005-06-23 07:38:02 51°20.865 2°35.961 289.9 15 281 21.6
2005-06-23 07:38:07 51°20.87 2°35.925 290.1 15 281 24.3
2005-06-23 07:38:12 51°20.873 2°35.895 290.1 15 281 25
2005-06-23 07:38:17 51°20.878 2°35.86 290 15 281 26.1
2005-06-23 07:38:22 51°20.881 2°35.831 290 15 281 25.8
2005-06-23 07:38:27 51°20.885 2°35.795 289.8 15 281 26.3
2005-06-23 07:38:31 51°20.888 2°35.769 289.6 15 280 25.8
2005-06-23 07:38:37 51°20.892 2°35.729 289.4 15 280 23.4
2005-06-23 07:38:42 51°20.895 2°35.696 289.2 15 280 23.7
2005-06-23 07:38:47 51°20.899 2°35.664 288.8 15 279 25.3
2005-06-23 07:38:51 51°20.902 2°35.638 288.7 15 280 26.7
2005-06-23 07:38:57 51°20.906 2°35.599 289.2 14.9 280 27.3
2005-06-23 07:39:02 51°20.909 2°35.569 289.9 14.9 281 27.7
2005-06-23 07:39:07 51°20.913 2°35.534 289.9 14.9 280 26.1
2005-06-23 07:39:12 51°20.917 2°35.501 289.8 14.9 279 23.7
2005-06-23 07:39:17 51°20.92 2°35.468 289.5 15 279 24.5
2005-06-23 07:39:22 51°20.923 2°35.435 288.8 15 279 25.7
2005-06-23 07:39:27 51°20.927 2°35.403 289 15 279 26.8
2005-06-23 07:39:32 51°20.93 2°35.373 289.6 15 279 27.5
2005-06-23 07:39:37 51°20.934 2°35.338 289.5 15 279 28.4
2005-06-23 07:39:42 51°20.937 2°35.305 289.2 14.9 279 29.4
2005-06-23 07:39:46 51°20.94 2°35.283 289.5 14.9 280 29.9
2005-06-23 07:39:51 51°20.944 2°35.25 290.1 14.9 280 27.4
2005-06-23 07:39:57 51°20.948 2°35.208 289.9 14.9 280 29.2
2005-06-23 07:40:02 51°20.951 2°35.179 289.3 14.9 280 29.9
2005-06-23 07:40:07 51°20.955 2°35.143 289.3 14.9 280 30
2005-06-23 07:40:12 51°20.959 2°35.11 289.5 14.9 280 30
2005-06-23 07:40:17 51°20.962 2°35.078 289.5 14.9 280 30.5
2005-06-23 07:40:22 51°20.966 2°35.045 289.5 14.9 280 30.3
2005-06-23 07:40:27 51°20.969 2°35.013 289.3 14.9 280 30.1
2005-06-23 07:40:32 51°20.973 2°34.98 289.1 14.9 280 30.5
2005-06-23 07:40:37 51°20.976 2°34.948 289.1 15 280 30.5
2005-06-23 07:40:42 51°20.98 2°34.918 289.5 15 280 30.3
2005-06-23 07:40:47 51°20.984 2°34.882 289.7 15 280 30.4
2005-06-23 07:40:52 51°20.987 2°34.853 289.5 15 280 30
2005-06-23 07:40:57 51°20.991 2°34.817 289.3 15 280 29.4
2005-06-23 07:41:02 51°20.994 2°34.784 289.3 15 280 30.2
2005-06-23 07:41:07 51°20.998 2°34.751 289.3 15 280 30.3
2005-06-23 07:41:12 51°21.001 2°34.718 289.1 15.1 280 30.1
2005-06-23 07:41:17 51°21.005 2°34.685 289.4 15.1 279 30.1
2005-06-23 07:41:22 51°21.008 2°34.652 289.2 15.1 280 29.9
2005-06-23 07:41:27 51°21.012 2°34.619 289.1 15.1 279 29.7
2005-06-23 07:41:32 51°21.015 2°34.586 288.9 15.1 280 29.6
2005-06-23 07:41:37 51°21.018 2°34.557 289 15.1 279 29.7
2005-06-23 07:41:42 51°21.021 2°34.524 288.9 15.1 279 29.6
2005-06-23 07:41:47 51°21.025 2°34.488 288.7 15.1 279 29.2
2005-06-23 07:41:52 51°21.028 2°34.455 288.7 15.1 279 29.5
2005-06-23 07:41:57 51°21.032 2°34.422 289 15 279 29.8
2005-06-23 07:42:02 51°21.035 2°34.392 289 15.1 280 30
2005-06-23 07:42:07 51°21.039 2°34.356 289.1 15.1 280 30.3
2005-06-23 07:42:12 51°21.042 2°34.323 289.2 15 280 30.1
2005-06-23 07:42:17 51°21.046 2°34.29 289.3 15 280 29.9
2005-06-23 07:42:22 51°21.05 2°34.257 289.3 15 280 29.7
2005-06-23 07:42:27 51°21.055 2°34.226 289.7 14.9 283 29.5
2005-06-23 07:42:32 51°21.062 2°34.195 293.8 14.7 289 29.6
2005-06-23 07:42:37 51°21.07 2°34.165 298.9 14.6 291 29.5
2005-06-23 07:42:42 51°21.078 2°34.139 304.1 14.4 296 29.5
2005-06-23 07:42:47 51°21.089 2°34.109 307.3 14.4 296 29.5
2005-06-23 07:42:51 51°21.097 2°34.087 310.1 14.3 299 29.5
2005-06-23 07:42:57 51°21.109 2°34.055 311.9 14.2 302 29.2
2005-06-23 07:43:02 51°21.122 2°34.032 315.1 14 307 29.1
2005-06-23 07:43:06 51°21.132 2°34.013 321.1 13.9 311 29.2
2005-06-23 07:43:11 51°21.146 2°33.993 326 13.7 315 29.7
2005-06-23 07:43:17 51°21.163 2°33.968 328.8 13.7 318 30
2005-06-23 07:43:22 51°21.177 2°33.949 332 13.6 319 29.7
2005-06-23 07:43:27 51°21.192 2°33.929 333.7 13.6 319 29.9
2005-06-23 07:43:32 51°21.206 2°33.908 333.2 13.7 318 30.1
2005-06-23 07:43:37 51°21.22 2°33.887 331.6 13.9 317 31
2005-06-23 07:43:42 51°21.232 2°33.868 330.6 13.9 317 30.9
2005-06-23 07:43:47 51°21.247 2°33.844 329.8 13.9 316 31.2
2005-06-23 07:43:52 51°21.261 2°33.822 329.1 14 315 31.6
2005-06-23 07:43:57 51°21.275 2°33.8 328.7 14 315 31.6
2005-06-23 07:44:02 51°21.287 2°33.78 328.5 14.1 315 31.4
2005-06-23 07:44:07 51°21.302 2°33.756 328 14.1 315 31.4
2005-06-23 07:44:12 51°21.315 2°33.735 327.9 14.1 314 31.3
2005-06-23 07:44:17 51°21.328 2°33.714 327.7 14.1 315 31.1
2005-06-23 07:44:22 51°21.344 2°33.689 327.7 14.1 315 30.8
2005-06-23 07:44:27 51°21.357 2°33.667 327.7 14.1 315 30.7
2005-06-23 07:44:32 51°21.371 2°33.645 327.7 14.1 315 30.2
2005-06-23 07:44:37 51°21.385 2°33.623 328 14 316 30.1
2005-06-23 07:44:42 51°21.399 2°33.601 328.3 14.1 315 30.1
2005-06-23 07:44:47 51°21.413 2°33.579 328.2 14.1 315 29.9
2005-06-23 07:44:51 51°21.424 2°33.562 328.2 14.1 315 29.8
2005-06-23 07:44:58 51°21.442 2°33.533 328.1 14.1 315 29.4
2005-06-23 07:45:02 51°21.453 2°33.516 328.1 14.1 315 28.9
2005-06-23 07:45:07 51°21.468 2°33.492 328.2 14.1 315 28.3
2005-06-23 07:45:11 51°21.479 2°33.474 328.3 14.1 315 28
2005-06-23 07:45:17 51°21.496 2°33.448 328.3 14 315 27.5
2005-06-23 07:45:22 51°21.509 2°33.426 328.3 14 315 27.1
2005-06-23 07:45:27 51°21.523 2°33.405 328.4 13.9 316 27.1
2005-06-23 07:45:31 51°21.534 2°33.388 328.9 13.9 316 26.7
2005-06-23 07:45:37 51°21.551 2°33.362 328.9 13.9 316 26.1
2005-06-23 07:45:42 51°21.565 2°33.341 328.7 13.9 316 25.3
2005-06-23 07:45:47 51°21.578 2°33.319 328.7 13.9 316 24.4
2005-06-23 07:45:52 51°21.592 2°33.298 328.5 13.9 316 23.9
2005-06-23 07:45:57 51°21.606 2°33.276 328.3 13.9 316 23.3
2005-06-23 07:46:02 51°21.619 2°33.254 328 13.9 316 23.2
2005-06-23 07:46:07 51°21.633 2°33.232 328.2 13.9 315 22.5
2005-06-23 07:46:12 51°21.646 2°33.213 328.2 13.9 316 22.6
2005-06-23 07:46:17 51°21.661 2°33.19 328.7 13.9 317 22.4
2005-06-23 07:46:22 51°21.675 2°33.168 329 13.9 316 22.4
2005-06-23 07:46:27 51°21.689 2°33.147 329.1 13.9 316 22.2
2005-06-23 07:46:32 51°21.703 2°33.126 329.1 13.9 316 22.1
2005-06-23 07:46:37 51°21.717 2°33.105 329 13.9 317 22.2
2005-06-23 07:46:42 51°21.731 2°33.084 328.9 13.9 317 21.9
2005-06-23 07:46:47 51°21.744 2°33.063 328.7 13.9 317 21.6
2005-06-23 07:46:52 51°21.758 2°33.041 329 13.9 317 21.5
2005-06-23 07:46:57 51°21.772 2°33.02 328.9 13.9 317 21.3
2005-06-23 07:47:02 51°21.786 2°32.999 328.7 13.9 317 21.6
2005-06-23 07:47:07 51°21.799 2°32.977 328.4 14 316 21.8
2005-06-23 07:47:11 51°21.81 2°32.96 328 14 316 21.8
2005-06-23 07:47:17 51°21.827 2°32.935 328.4 13.9 316 22
2005-06-23 07:47:22 51°21.84 2°32.916 328.8 13.9 316 22.8
2005-06-23 07:47:27 51°21.855 2°32.892 329.2 13.9 317 23.4
2005-06-23 07:47:31 51°21.867 2°32.875 329.4 13.9 317 23.8
2005-06-23 07:47:37 51°21.884 2°32.85 329.2 13.9 317 24
2005-06-23 07:47:42 51°21.896 2°32.831 328.8 13.9 317 25
2005-06-23 07:47:47 51°21.912 2°32.807 328.7 14 317 25.7
2005-06-23 07:47:52 51°21.926 2°32.786 328.9 14 317 25.9
2005-06-23 07:47:57 51°21.94 2°32.765 329.1 14 317 26.4
2005-06-23 07:48:02 51°21.952 2°32.746 329.2 14 317 27
2005-06-23 07:48:07 51°21.968 2°32.723 329 14 317 27.9
2005-06-23 07:48:12 51°21.982 2°32.701 329.1 14 317 28
2005-06-23 07:48:17 51°21.996 2°32.68 328.9 14 317 28.3
2005-06-23 07:48:22 51°22.009 2°32.66 328.8 14.1 316 29
2005-06-23 07:48:27 51°22.024 2°32.637 328.6 14.1 316 28.8
2005-06-23 07:48:32 51°22.037 2°32.617 328.7 14.1 317 28.9
2005-06-23 07:48:37 51°22.052 2°32.594 328.7 14.1 317 29.3
2005-06-23 07:48:42 51°22.066 2°32.572 328.8 14.1 317 29.4
2005-06-23 07:48:46 51°22.078 2°32.555 328.7 14.1 317 29.6
2005-06-23 07:48:52 51°22.095 2°32.529 328.7 14.1 317 29.8
2005-06-23 07:48:57 51°22.109 2°32.508 328.7 14.1 317 29.7
2005-06-23 07:49:02 51°22.123 2°32.486 328.7 14.1 317 29.7
2005-06-23 07:49:06 51°22.133 2°32.471 328.8 14.1 317 30
2005-06-23 07:49:11 51°22.147 2°32.45 329 14.1 317 30.9
2005-06-23 07:49:18 51°22.167 2°32.419 328.9 14.2 317 30
2005-06-23 07:49:22 51°22.178 2°32.402 328.8 14.2 317 29.6
2005-06-23 07:49:27 51°22.194 2°32.378 328.7 14.2 317 29.4
2005-06-23 07:49:31 51°22.205 2°32.361 328.7 14.2 317 29.4
2005-06-23 07:49:37 51°22.223 2°32.335 329 14.1 317 29.1
2005-06-23 07:49:42 51°22.237 2°32.313 329.1 14.1 317 29.8
2005-06-23 07:49:46 51°22.247 2°32.298 329.3 14.1 317 30.2
2005-06-23 07:49:52 51°22.265 2°32.27 329.1 14.1 317 30.6
2005-06-23 07:49:57 51°22.278 2°32.247 328.6 14.1 315 31.1
2005-06-23 07:50:02 51°22.289 2°32.224 325.5 14.3 310 30.6
2005-06-23 07:50:07 51°22.302 2°32.196 321.8 14.3 308 30.8
2005-06-23 07:50:12 51°22.314 2°32.17 319.2 14.4 306 29.9